Terminal Aerodrome Forecast
Issued by NWS

Home | Current Version | Previous Version | Text Only | Print | Product List | Glossary On
Versions: 1 2 3 4 5 6 7 8 9 10 11 12 13 14 15 16
126
FTUS42 KTBW 061722
TAFRSW
TAF
KRSW 061722Z 0618/0718 23018G28KT P6SM SCT017 BKN070
      TEMPO 0620/0623 VRB20G30KT 2SM +TSRA BKN020CB
     FM062300 25010KT P6SM SCT015 BKN028
     FM070200 27005KT P6SM SCT015 BKN025
     FM070600 32004KT P6SM SCT020 SCT250=

USA.gov is the U.S. government's official web portal to all federal, state and local government web resources and services.